sensor_id;sensor_type;location;lat;lon;timestamp;temperature;humidity
792;DHT22;379;49.022;12.148;2022-10-04T00:01:52;3.90;99.90
792;DHT22;379;49.022;12.148;2022-10-04T00:04:23;3.80;99.90
792;DHT22;379;49.022;12.148;2022-10-04T00:06:56;3.70;99.90
792;DHT22;379;49.022;12.148;2022-10-04T00:09:25;3.70;99.90
792;DHT22;379;49.022;12.148;2022-10-04T00:11:57;3.80;99.90
792;DHT22;379;49.022;12.148;2022-10-04T00:14:27;3.80;99.90
792;DHT22;379;49.022;12.148;2022-10-04T00:16:56;3.70;99.90
792;DHT22;379;49.022;12.148;2022-10-04T00:19:37;3.60;99.90
792;DHT22;379;49.022;12.148;2022-10-04T00:22:26;3.60;99.90
792;DHT22;379;49.022;12.148;2022-10-04T00:25:20;3.60;99.90
792;DHT22;379;49.022;12.148;2022-10-04T00:28:40;3.40;99.90
792;DHT22;379;49.022;12.148;2022-10-04T00:31:16;3.20;99.90
792;DHT22;379;49.022;12.148;2022-10-04T00:33:44;3.20;99.90
792;DHT22;379;49.022;12.148;2022-10-04T00:36:37;3.30;99.90
792;DHT22;379;49.022;12.148;2022-10-04T00:39:25;3.30;99.90
792;DHT22;379;49.022;12.148;2022-10-04T00:42:01;3.40;99.90
792;DHT22;379;49.022;12.148;2022-10-04T00:44:40;3.30;99.90
792;DHT22;379;49.022;12.148;2022-10-04T00:47:20;3.30;99.90
792;DHT22;379;49.022;12.148;2022-10-04T00:49:52;3.30;99.90
792;DHT22;379;49.022;12.148;2022-10-04T00:52:24;3.30;99.90
792;DHT22;379;49.022;12.148;2022-10-04T00:54:55;3.30;99.90
792;DHT22;379;49.022;12.148;2022-10-04T00:57:25;3.20;99.90
792;DHT22;379;49.022;12.148;2022-10-04T00:59:56;3.20;99.90
792;DHT22;379;49.022;12.148;2022-10-04T01:02:28;3.20;99.90
792;DHT22;379;49.022;12.148;2022-10-04T01:04:58;3.20;99.90
792;DHT22;379;49.022;12.148;2022-10-04T01:07:28;3.20;99.90
792;DHT22;379;49.022;12.148;2022-10-04T01:09:59;3.20;99.90
792;DHT22;379;49.022;12.148;2022-10-04T01:12:36;3.20;99.90
792;DHT22;379;49.022;12.148;2022-10-04T01:15:09;3.30;99.90
792;DHT22;379;49.022;12.148;2022-10-04T01:17:38;3.30;99.90
792;DHT22;379;49.022;12.148;2022-10-04T01:20:26;3.30;99.90
792;DHT22;379;49.022;12.148;2022-10-04T01:22:55;3.30;99.90
792;DHT22;379;49.022;12.148;2022-10-04T01:25:44;3.40;99.90
792;DHT22;379;49.022;12.148;2022-10-04T01:28:11;3.40;99.90
792;DHT22;379;49.022;12.148;2022-10-04T01:30:38;3.40;99.90
792;DHT22;379;49.022;12.148;2022-10-04T01:33:05;3.30;99.90
792;DHT22;379;49.022;12.148;2022-10-04T01:35:32;3.30;99.90
792;DHT22;379;49.022;12.148;2022-10-04T01:38:02;3.30;99.90
792;DHT22;379;49.022;12.148;2022-10-04T01:40:31;3.30;99.90
792;DHT22;379;49.022;12.148;2022-10-04T01:43:00;3.20;99.90
792;DHT22;379;49.022;12.148;2022-10-04T01:45:34;3.00;99.90
792;DHT22;379;49.022;12.148;2022-10-04T01:48:04;3.10;99.90
792;DHT22;379;49.022;12.148;2022-10-04T01:50:36;3.20;99.90
792;DHT22;379;49.022;12.148;2022-10-04T01:53:12;3.20;99.90
792;DHT22;379;49.022;12.148;2022-10-04T01:55:44;3.20;99.90
792;DHT22;379;49.022;12.148;2022-10-04T01:58:15;3.20;99.90
792;DHT22;379;49.022;12.148;2022-10-04T02:00:47;3.30;99.90
792;DHT22;379;49.022;12.148;2022-10-04T02:03:18;3.20;99.90
792;DHT22;379;49.022;12.148;2022-10-04T02:05:50;3.20;99.90
792;DHT22;379;49.022;12.148;2022-10-04T02:08:25;3.10;99.90
792;DHT22;379;49.022;12.148;2022-10-04T02:10:52;3.00;99.90
792;DHT22;379;49.022;12.148;2022-10-04T02:13:20;3.00;99.90
792;DHT22;379;49.022;12.148;2022-10-04T02:15:48;3.00;99.90
792;DHT22;379;49.022;12.148;2022-10-04T02:18:18;3.10;99.90
792;DHT22;379;49.022;12.148;2022-10-04T02:20:46;3.10;99.90
792;DHT22;379;49.022;12.148;2022-10-04T02:23:16;3.10;99.90
792;DHT22;379;49.022;12.148;2022-10-04T02:25:45;3.00;99.90
792;DHT22;379;49.022;12.148;2022-10-04T02:28:13;2.90;99.90
792;DHT22;379;49.022;12.148;2022-10-04T02:30:44;2.80;99.90
792;DHT22;379;49.022;12.148;2022-10-04T02:33:33;2.70;99.90
792;DHT22;379;49.022;12.148;2022-10-04T02:36:03;2.60;99.90
792;DHT22;379;49.022;12.148;2022-10-04T02:38:34;2.50;99.90
792;DHT22;379;49.022;12.148;2022-10-04T02:41:09;2.50;99.90
792;DHT22;379;49.022;12.148;2022-10-04T02:43:40;2.40;99.90
792;DHT22;379;49.022;12.148;2022-10-04T02:46:13;2.30;99.90
792;DHT22;379;49.022;12.148;2022-10-04T02:48:45;2.30;99.90
792;DHT22;379;49.022;12.148;2022-10-04T02:51:18;2.30;99.90
792;DHT22;379;49.022;12.148;2022-10-04T02:54:00;2.30;99.90
792;DHT22;379;49.022;12.148;2022-10-04T02:56:29;2.30;99.90
792;DHT22;379;49.022;12.148;2022-10-04T02:59:00;2.30;99.90
792;DHT22;379;49.022;12.148;2022-10-04T03:01:39;2.30;99.90
792;DHT22;379;49.022;12.148;2022-10-04T03:04:10;2.20;99.90
792;DHT22;379;49.022;12.148;2022-10-04T03:06:38;2.20;99.90
792;DHT22;379;49.022;12.148;2022-10-04T03:09:05;2.20;99.90
792;DHT22;379;49.022;12.148;2022-10-04T03:11:36;2.20;99.90
792;DHT22;379;49.022;12.148;2022-10-04T03:14:06;2.20;99.90
792;DHT22;379;49.022;12.148;2022-10-04T03:16:35;2.20;99.90
792;DHT22;379;49.022;12.148;2022-10-04T03:19:02;2.30;99.90
792;DHT22;379;49.022;12.148;2022-10-04T03:21:31;2.30;99.90
792;DHT22;379;49.022;12.148;2022-10-04T03:23:59;2.30;99.90
792;DHT22;379;49.022;12.148;2022-10-04T03:26:28;2.20;99.90
792;DHT22;379;49.022;12.148;2022-10-04T03:28:58;2.10;99.90
792;DHT22;379;49.022;12.148;2022-10-04T03:31:26;2.10;99.90
792;DHT22;379;49.022;12.148;2022-10-04T03:33:54;2.10;99.90
792;DHT22;379;49.022;12.148;2022-10-04T03:36:22;2.00;99.90
792;DHT22;379;49.022;12.148;2022-10-04T03:38:52;2.00;99.90
792;DHT22;379;49.022;12.148;2022-10-04T03:41:21;2.00;99.90
792;DHT22;379;49.022;12.148;2022-10-04T03:43:49;2.00;99.90
792;DHT22;379;49.022;12.148;2022-10-04T03:46:18;2.00;99.90
792;DHT22;379;49.022;12.148;2022-10-04T03:48:48;2.10;99.90
792;DHT22;379;49.022;12.148;2022-10-04T03:51:17;2.10;99.90
792;DHT22;379;49.022;12.148;2022-10-04T03:53:47;2.30;99.90
792;DHT22;379;49.022;12.148;2022-10-04T03:56:18;2.30;99.90
792;DHT22;379;49.022;12.148;2022-10-04T03:58:46;2.40;99.90
792;DHT22;379;49.022;12.148;2022-10-04T04:01:24;2.50;99.90
792;DHT22;379;49.022;12.148;2022-10-04T04:04:01;2.50;99.90
792;DHT22;379;49.022;12.148;2022-10-04T04:06:39;2.60;99.90
792;DHT22;379;49.022;12.148;2022-10-04T04:09:08;2.60;99.90
792;DHT22;379;49.022;12.148;2022-10-04T04:11:42;2.70;99.90
792;DHT22;379;49.022;12.148;2022-10-04T04:14:13;2.70;99.90
792;DHT22;379;49.022;12.148;2022-10-04T04:16:43;2.70;99.90
792;DHT22;379;49.022;12.148;2022-10-04T04:19:12;2.70;99.90
792;DHT22;379;49.022;12.148;2022-10-04T04:21:41;2.70;99.90
792;DHT22;379;49.022;12.148;2022-10-04T04:24:15;2.70;99.90
792;DHT22;379;49.022;12.148;2022-10-04T04:26:49;2.70;99.90
792;DHT22;379;49.022;12.148;2022-10-04T04:29:22;2.60;99.90
792;DHT22;379;49.022;12.148;2022-10-04T04:31:54;2.60;99.90
792;DHT22;379;49.022;12.148;2022-10-04T04:34:25;2.60;99.90
792;DHT22;379;49.022;12.148;2022-10-04T04:36:57;2.70;99.90
792;DHT22;379;49.022;12.148;2022-10-04T04:39:24;2.70;99.90
792;DHT22;379;49.022;12.148;2022-10-04T04:42:03;2.70;99.90
792;DHT22;379;49.022;12.148;2022-10-04T04:44:31;2.70;99.90
792;DHT22;379;49.022;12.148;2022-10-04T04:46:59;2.80;99.90
792;DHT22;379;49.022;12.148;2022-10-04T04:49:27;2.80;99.90
792;DHT22;379;49.022;12.148;2022-10-04T04:51:56;2.80;99.90
792;DHT22;379;49.022;12.148;2022-10-04T04:54:25;2.90;99.90
792;DHT22;379;49.022;12.148;2022-10-04T04:56:53;2.90;99.90
792;DHT22;379;49.022;12.148;2022-10-04T04:59:21;3.00;99.90
792;DHT22;379;49.022;12.148;2022-10-04T05:01:54;3.00;99.90
792;DHT22;379;49.022;12.148;2022-10-04T05:04:23;3.00;99.90
792;DHT22;379;49.022;12.148;2022-10-04T05:07:02;3.00;99.90
792;DHT22;379;49.022;12.148;2022-10-04T05:09:32;3.00;99.90
792;DHT22;379;49.022;12.148;2022-10-04T05:12:05;3.10;99.90
792;DHT22;379;49.022;12.148;2022-10-04T05:14:34;3.20;99.90
792;DHT22;379;49.022;12.148;2022-10-04T05:17:03;3.20;99.90
792;DHT22;379;49.022;12.148;2022-10-04T05:19:34;3.20;99.90
792;DHT22;379;49.022;12.148;2022-10-04T05:22:07;3.30;99.90
792;DHT22;379;49.022;12.148;2022-10-04T05:24:38;3.30;99.90
792;DHT22;379;49.022;12.148;2022-10-04T05:27:07;3.30;99.90
792;DHT22;379;49.022;12.148;2022-10-04T05:29:37;3.30;99.90
792;DHT22;379;49.022;12.148;2022-10-04T05:32:14;3.40;99.90
792;DHT22;379;49.022;12.148;2022-10-04T05:34:48;3.40;99.90
792;DHT22;379;49.022;12.148;2022-10-04T05:37:34;3.40;99.90
792;DHT22;379;49.022;12.148;2022-10-04T05:40:15;3.50;99.90
792;DHT22;379;49.022;12.148;2022-10-04T05:42:48;3.50;99.90
792;DHT22;379;49.022;12.148;2022-10-04T05:45:18;3.60;99.90
792;DHT22;379;49.022;12.148;2022-10-04T05:47:47;3.70;99.90
792;DHT22;379;49.022;12.148;2022-10-04T05:50:19;3.70;99.90
792;DHT22;379;49.022;12.148;2022-10-04T05:52:49;3.90;99.90
792;DHT22;379;49.022;12.148;2022-10-04T05:55:21;3.90;99.90
792;DHT22;379;49.022;12.148;2022-10-04T05:58:12;4.00;99.90
792;DHT22;379;49.022;12.148;2022-10-04T06:01:01;4.20;99.90
792;DHT22;379;49.022;12.148;2022-10-04T06:03:42;4.30;99.90
792;DHT22;379;49.022;12.148;2022-10-04T06:06:17;4.40;99.90
792;DHT22;379;49.022;12.148;2022-10-04T06:08:53;4.50;99.90
792;DHT22;379;49.022;12.148;2022-10-04T06:11:32;4.50;99.90
792;DHT22;379;49.022;12.148;2022-10-04T06:14:29;4.60;99.90
792;DHT22;379;49.022;12.148;2022-10-04T06:17:27;4.60;99.90
792;DHT22;379;49.022;12.148;2022-10-04T06:20:12;4.80;99.90
792;DHT22;379;49.022;12.148;2022-10-04T06:22:47;4.90;99.90
792;DHT22;379;49.022;12.148;2022-10-04T06:25:19;5.00;99.90
792;DHT22;379;49.022;12.148;2022-10-04T06:27:51;5.00;99.90
792;DHT22;379;49.022;12.148;2022-10-04T06:30:28;5.10;99.90
792;DHT22;379;49.022;12.148;2022-10-04T06:33:18;5.20;99.90
792;DHT22;379;49.022;12.148;2022-10-04T06:36:22;5.30;99.90
792;DHT22;379;49.022;12.148;2022-10-04T06:39:17;5.40;99.90
792;DHT22;379;49.022;12.148;2022-10-04T06:42:00;5.50;99.90
792;DHT22;379;49.022;12.148;2022-10-04T06:44:41;5.60;99.90
792;DHT22;379;49.022;12.148;2022-10-04T06:47:30;5.70;99.90
792;DHT22;379;49.022;12.148;2022-10-04T06:50:11;5.80;99.90
792;DHT22;379;49.022;12.148;2022-10-04T06:53:03;5.90;99.90
792;DHT22;379;49.022;12.148;2022-10-04T06:56:01;6.00;99.90
792;DHT22;379;49.022;12.148;2022-10-04T06:59:02;6.20;99.90
792;DHT22;379;49.022;12.148;2022-10-04T07:01:34;6.20;99.90
792;DHT22;379;49.022;12.148;2022-10-04T07:04:08;6.20;99.90
792;DHT22;379;49.022;12.148;2022-10-04T07:06:45;6.30;99.90
792;DHT22;379;49.022;12.148;2022-10-04T07:09:18;6.40;99.90
792;DHT22;379;49.022;12.148;2022-10-04T07:11:51;6.60;99.90
792;DHT22;379;49.022;12.148;2022-10-04T07:14:23;6.60;99.90
792;DHT22;379;49.022;12.148;2022-10-04T07:17:00;6.70;99.90
792;DHT22;379;49.022;12.148;2022-10-04T07:19:33;6.70;99.90
792;DHT22;379;49.022;12.148;2022-10-04T07:22:11;6.80;99.90
792;DHT22;379;49.022;12.148;2022-10-04T07:24:47;7.00;99.90
792;DHT22;379;49.022;12.148;2022-10-04T07:27:23;7.10;99.90
792;DHT22;379;49.022;12.148;2022-10-04T07:29:54;7.20;99.90
792;DHT22;379;49.022;12.148;2022-10-04T07:32:22;7.20;99.90
792;DHT22;379;49.022;12.148;2022-10-04T07:34:54;7.30;99.90
792;DHT22;379;49.022;12.148;2022-10-04T07:37:24;7.50;99.90
792;DHT22;379;49.022;12.148;2022-10-04T07:39:57;7.60;99.90
792;DHT22;379;49.022;12.148;2022-10-04T07:42:31;7.80;99.90
792;DHT22;379;49.022;12.148;2022-10-04T07:45:11;7.80;99.90
792;DHT22;379;49.022;12.148;2022-10-04T07:47:39;7.90;99.90
792;DHT22;379;49.022;12.148;2022-10-04T07:50:29;7.80;99.90
792;DHT22;379;49.022;12.148;2022-10-04T07:53:04;7.90;99.90
792;DHT22;379;49.022;12.148;2022-10-04T07:55:41;8.00;99.90
792;DHT22;379;49.022;12.148;2022-10-04T07:58:34;8.00;99.90
792;DHT22;379;49.022;12.148;2022-10-04T08:01:04;7.90;99.90
792;DHT22;379;49.022;12.148;2022-10-04T08:03:56;7.90;99.90
792;DHT22;379;49.022;12.148;2022-10-04T08:06:32;7.90;99.90
792;DHT22;379;49.022;12.148;2022-10-04T08:09:22;7.90;99.90
792;DHT22;379;49.022;12.148;2022-10-04T08:11:57;7.90;99.90
792;DHT22;379;49.022;12.148;2022-10-04T08:14:52;7.90;99.90
792;DHT22;379;49.022;12.148;2022-10-04T08:17:29;8.00;99.90
792;DHT22;379;49.022;12.148;2022-10-04T08:20:11;8.10;99.90
792;DHT22;379;49.022;12.148;2022-10-04T08:22:53;8.20;99.90
792;DHT22;379;49.022;12.148;2022-10-04T08:25:26;8.40;99.90
792;DHT22;379;49.022;12.148;2022-10-04T08:28:01;8.60;99.90
792;DHT22;379;49.022;12.148;2022-10-04T08:31:12;8.80;99.90
792;DHT22;379;49.022;12.148;2022-10-04T08:33:56;8.90;99.90
792;DHT22;379;49.022;12.148;2022-10-04T08:36:39;9.00;99.90
792;DHT22;379;49.022;12.148;2022-10-04T08:39:23;9.10;99.90
792;DHT22;379;49.022;12.148;2022-10-04T08:45:33;9.50;99.90
792;DHT22;379;49.022;12.148;2022-10-04T08:54:54;9.90;99.90
792;DHT22;379;49.022;12.148;2022-10-04T09:00:55;9.80;99.90
792;DHT22;379;49.022;12.148;2022-10-04T09:03:49;9.90;99.90
792;DHT22;379;49.022;12.148;2022-10-04T09:06:41;10.20;99.90
792;DHT22;379;49.022;12.148;2022-10-04T09:15:34;10.70;99.90
792;DHT22;379;49.022;12.148;2022-10-04T09:18:19;11.00;99.90
792;DHT22;379;49.022;12.148;2022-10-04T09:20:53;11.10;99.90
792;DHT22;379;49.022;12.148;2022-10-04T09:26:30;11.40;99.90
792;DHT22;379;49.022;12.148;2022-10-04T09:32:16;11.80;99.90
792;DHT22;379;49.022;12.148;2022-10-04T09:35:10;11.80;99.90
792;DHT22;379;49.022;12.148;2022-10-04T09:37:49;11.70;99.90
792;DHT22;379;49.022;12.148;2022-10-04T09:40:54;11.60;99.90
792;DHT22;379;49.022;12.148;2022-10-04T09:46:48;11.60;99.90
792;DHT22;379;49.022;12.148;2022-10-04T09:49:32;11.70;99.90
792;DHT22;379;49.022;12.148;2022-10-04T09:52:22;11.80;99.90
792;DHT22;379;49.022;12.148;2022-10-04T09:58:17;12.20;99.90
792;DHT22;379;49.022;12.148;2022-10-04T10:00:50;12.40;99.90
792;DHT22;379;49.022;12.148;2022-10-04T10:03:33;12.50;99.90
792;DHT22;379;49.022;12.148;2022-10-04T10:06:18;12.40;99.90
792;DHT22;379;49.022;12.148;2022-10-04T10:08:55;12.50;99.90
792;DHT22;379;49.022;12.148;2022-10-04T10:11:31;12.50;99.90
792;DHT22;379;49.022;12.148;2022-10-04T10:14:40;12.60;99.90
792;DHT22;379;49.022;12.148;2022-10-04T10:17:14;12.60;99.90
792;DHT22;379;49.022;12.148;2022-10-04T10:23:13;12.60;99.90
792;DHT22;379;49.022;12.148;2022-10-04T10:25:55;12.70;99.90
792;DHT22;379;49.022;12.148;2022-10-04T10:28:47;12.80;99.90
792;DHT22;379;49.022;12.148;2022-10-04T10:31:31;12.90;99.90
792;DHT22;379;49.022;12.148;2022-10-04T10:34:17;13.00;99.90
792;DHT22;379;49.022;12.148;2022-10-04T10:37:05;13.20;99.90
792;DHT22;379;49.022;12.148;2022-10-04T10:39:52;13.30;99.90
792;DHT22;379;49.022;12.148;2022-10-04T10:42:42;13.40;99.90
792;DHT22;379;49.022;12.148;2022-10-04T10:45:19;13.40;99.90
792;DHT22;379;49.022;12.148;2022-10-04T10:47:53;13.40;98.20
792;DHT22;379;49.022;12.148;2022-10-04T10:50:41;13.40;98.50
792;DHT22;379;49.022;12.148;2022-10-04T10:56:42;13.60;98.30
792;DHT22;379;49.022;12.148;2022-10-04T10:59:41;13.80;98.40
792;DHT22;379;49.022;12.148;2022-10-04T11:02:41;13.90;98.40
792;DHT22;379;49.022;12.148;2022-10-04T11:05:38;14.00;97.70
792;DHT22;379;49.022;12.148;2022-10-04T11:08:23;14.10;97.70
792;DHT22;379;49.022;12.148;2022-10-04T11:11:18;14.20;97.80
792;DHT22;379;49.022;12.148;2022-10-04T11:14:17;14.30;96.60
792;DHT22;379;49.022;12.148;2022-10-04T11:17:11;14.50;96.50
792;DHT22;379;49.022;12.148;2022-10-04T11:23:09;14.70;94.40
792;DHT22;379;49.022;12.148;2022-10-04T11:26:18;14.70;94.00
792;DHT22;379;49.022;12.148;2022-10-04T11:28:53;14.80;94.30
792;DHT22;379;49.022;12.148;2022-10-04T11:35:01;14.70;93.70
792;DHT22;379;49.022;12.148;2022-10-04T11:37:50;14.50;93.60
792;DHT22;379;49.022;12.148;2022-10-04T11:40:32;14.30;94.10
792;DHT22;379;49.022;12.148;2022-10-04T11:43:16;14.20;94.50
792;DHT22;379;49.022;12.148;2022-10-04T11:46:12;14.10;95.30
792;DHT22;379;49.022;12.148;2022-10-04T11:48:56;14.00;95.60
792;DHT22;379;49.022;12.148;2022-10-04T11:51:54;13.90;95.20
792;DHT22;379;49.022;12.148;2022-10-04T11:57:29;13.70;95.50
792;DHT22;379;49.022;12.148;2022-10-04T12:00:05;13.60;94.80
792;DHT22;379;49.022;12.148;2022-10-04T12:03:00;13.60;95.00
792;DHT22;379;49.022;12.148;2022-10-04T12:05:39;13.60;95.30
792;DHT22;379;49.022;12.148;2022-10-04T12:08:22;13.50;95.60
792;DHT22;379;49.022;12.148;2022-10-04T12:11:15;13.40;95.60
792;DHT22;379;49.022;12.148;2022-10-04T12:13:54;13.40;95.80
792;DHT22;379;49.022;12.148;2022-10-04T12:19:30;13.30;96.40
792;DHT22;379;49.022;12.148;2022-10-04T12:22:40;13.20;96.50
792;DHT22;379;49.022;12.148;2022-10-04T12:25:36;13.20;96.80
792;DHT22;379;49.022;12.148;2022-10-04T12:28:40;13.10;96.80
792;DHT22;379;49.022;12.148;2022-10-04T12:31:21;13.10;96.50
792;DHT22;379;49.022;12.148;2022-10-04T12:33:56;13.10;96.50
792;DHT22;379;49.022;12.148;2022-10-04T12:36:33;13.00;96.40
792;DHT22;379;49.022;12.148;2022-10-04T12:39:18;13.00;96.60
792;DHT22;379;49.022;12.148;2022-10-04T12:41:55;13.00;96.70
792;DHT22;379;49.022;12.148;2022-10-04T12:44:37;13.00;96.70
792;DHT22;379;49.022;12.148;2022-10-04T12:50:26;13.00;96.70
792;DHT22;379;49.022;12.148;2022-10-04T12:53:03;13.10;96.30
792;DHT22;379;49.022;12.148;2022-10-04T12:55:46;13.10;94.80
792;DHT22;379;49.022;12.148;2022-10-04T12:58:22;13.10;94.00
792;DHT22;379;49.022;12.148;2022-10-04T13:00:57;13.20;94.20
792;DHT22;379;49.022;12.148;2022-10-04T13:03:33;13.20;94.10
792;DHT22;379;49.022;12.148;2022-10-04T13:06:11;13.20;91.70
792;DHT22;379;49.022;12.148;2022-10-04T13:08:49;13.20;90.00
792;DHT22;379;49.022;12.148;2022-10-04T13:11:35;13.20;90.70
792;DHT22;379;49.022;12.148;2022-10-04T13:14:31;13.20;91.20
792;DHT22;379;49.022;12.148;2022-10-04T13:17:04;13.10;91.20
792;DHT22;379;49.022;12.148;2022-10-04T13:19:39;13.10;91.60
792;DHT22;379;49.022;12.148;2022-10-04T13:22:26;13.10;91.50
792;DHT22;379;49.022;12.148;2022-10-04T13:25:07;13.10;91.50
792;DHT22;379;49.022;12.148;2022-10-04T13:27:45;13.10;90.40
792;DHT22;379;49.022;12.148;2022-10-04T13:30:19;13.20;87.50
792;DHT22;379;49.022;12.148;2022-10-04T13:32:54;13.20;86.70
792;DHT22;379;49.022;12.148;2022-10-04T13:35:26;13.20;87.30
792;DHT22;379;49.022;12.148;2022-10-04T13:38:30;13.20;88.30
792;DHT22;379;49.022;12.148;2022-10-04T13:41:10;13.20;89.00
792;DHT22;379;49.022;12.148;2022-10-04T13:44:05;13.20;88.50
792;DHT22;379;49.022;12.148;2022-10-04T13:46:48;13.20;84.60
792;DHT22;379;49.022;12.148;2022-10-04T13:49:25;13.40;83.10
792;DHT22;379;49.022;12.148;2022-10-04T13:52:10;13.50;80.20
792;DHT22;379;49.022;12.148;2022-10-04T13:55:06;13.50;80.90
792;DHT22;379;49.022;12.148;2022-10-04T13:57:58;13.50;80.10
792;DHT22;379;49.022;12.148;2022-10-04T14:00:44;13.50;79.30
792;DHT22;379;49.022;12.148;2022-10-04T14:03:28;13.50;79.00
792;DHT22;379;49.022;12.148;2022-10-04T14:06:33;13.50;79.30
792;DHT22;379;49.022;12.148;2022-10-04T14:09:28;13.50;79.50
792;DHT22;379;49.022;12.148;2022-10-04T14:15:18;13.50;78.80
792;DHT22;379;49.022;12.148;2022-10-04T14:21:19;13.50;79.30
792;DHT22;379;49.022;12.148;2022-10-04T14:27:36;13.40;80.80
792;DHT22;379;49.022;12.148;2022-10-04T14:30:16;13.40;81.40
792;DHT22;379;49.022;12.148;2022-10-04T14:33:09;13.40;82.00
792;DHT22;379;49.022;12.148;2022-10-04T14:35:44;13.40;81.70
792;DHT22;379;49.022;12.148;2022-10-04T14:38:47;13.40;81.90
792;DHT22;379;49.022;12.148;2022-10-04T14:44:32;13.30;82.10
792;DHT22;379;49.022;12.148;2022-10-04T14:47:14;13.30;82.90
792;DHT22;379;49.022;12.148;2022-10-04T14:49:59;13.30;83.60
792;DHT22;379;49.022;12.148;2022-10-04T14:52:37;13.30;81.60
792;DHT22;379;49.022;12.148;2022-10-04T14:55:32;13.30;82.40
792;DHT22;379;49.022;12.148;2022-10-04T14:58:13;13.20;82.80
792;DHT22;379;49.022;12.148;2022-10-04T15:00:59;13.20;82.40
792;DHT22;379;49.022;12.148;2022-10-04T15:03:32;13.20;83.70
792;DHT22;379;49.022;12.148;2022-10-04T15:06:34;13.20;84.70
792;DHT22;379;49.022;12.148;2022-10-04T15:09:45;13.20;84.70
792;DHT22;379;49.022;12.148;2022-10-04T15:15:33;13.20;84.60
792;DHT22;379;49.022;12.148;2022-10-04T15:18:08;13.20;85.10
792;DHT22;379;49.022;12.148;2022-10-04T15:20:47;13.20;85.20
792;DHT22;379;49.022;12.148;2022-10-04T15:23:25;13.20;85.70
792;DHT22;379;49.022;12.148;2022-10-04T15:25:58;13.20;85.80
792;DHT22;379;49.022;12.148;2022-10-04T15:28:50;13.20;86.20
792;DHT22;379;49.022;12.148;2022-10-04T15:31:29;13.10;86.40
792;DHT22;379;49.022;12.148;2022-10-04T15:34:04;13.10;86.80
792;DHT22;379;49.022;12.148;2022-10-04T15:36:50;13.00;87.00
792;DHT22;379;49.022;12.148;2022-10-04T15:39:42;13.00;87.40
792;DHT22;379;49.022;12.148;2022-10-04T15:42:15;12.90;87.80
792;DHT22;379;49.022;12.148;2022-10-04T15:45:03;12.90;89.20
792;DHT22;379;49.022;12.148;2022-10-04T15:47:35;12.70;89.30
792;DHT22;379;49.022;12.148;2022-10-04T15:50:22;12.70;90.30
792;DHT22;379;49.022;12.148;2022-10-04T15:53:10;12.60;90.20
792;DHT22;379;49.022;12.148;2022-10-04T15:56:05;12.50;90.50
792;DHT22;379;49.022;12.148;2022-10-04T15:58:51;12.50;91.10
792;DHT22;379;49.022;12.148;2022-10-04T16:04:36;12.40;91.20
792;DHT22;379;49.022;12.148;2022-10-04T16:07:31;12.30;91.30
792;DHT22;379;49.022;12.148;2022-10-04T16:10:13;12.30;91.30
792;DHT22;379;49.022;12.148;2022-10-04T16:13:18;12.20;91.60
792;DHT22;379;49.022;12.148;2022-10-04T16:19:15;12.00;92.40
792;DHT22;379;49.022;12.148;2022-10-04T16:21:50;11.80;92.50
792;DHT22;379;49.022;12.148;2022-10-04T16:24:37;11.70;92.70
792;DHT22;379;49.022;12.148;2022-10-04T16:27:43;11.70;92.70
792;DHT22;379;49.022;12.148;2022-10-04T16:30:14;11.60;92.70
792;DHT22;379;49.022;12.148;2022-10-04T16:32:45;11.50;92.70
792;DHT22;379;49.022;12.148;2022-10-04T16:35:28;11.50;92.60
792;DHT22;379;49.022;12.148;2022-10-04T16:38:03;11.50;92.60
792;DHT22;379;49.022;12.148;2022-10-04T16:40:38;11.30;92.80
792;DHT22;379;49.022;12.148;2022-10-04T16:43:24;11.20;93.30
792;DHT22;379;49.022;12.148;2022-10-04T16:46:16;11.00;93.60
792;DHT22;379;49.022;12.148;2022-10-04T16:48:51;10.80;94.00
792;DHT22;379;49.022;12.148;2022-10-04T16:52:00;10.70;94.60
792;DHT22;379;49.022;12.148;2022-10-04T16:54:57;10.50;95.00
792;DHT22;379;49.022;12.148;2022-10-04T16:57:25;10.40;96.40
792;DHT22;379;49.022;12.148;2022-10-04T16:59:55;10.30;97.20
792;DHT22;379;49.022;12.148;2022-10-04T17:02:33;10.20;98.00
792;DHT22;379;49.022;12.148;2022-10-04T17:05:18;10.20;99.00
792;DHT22;379;49.022;12.148;2022-10-04T17:14:30;10.00;99.90
792;DHT22;379;49.022;12.148;2022-10-04T17:17:01;10.00;99.90
792;DHT22;379;49.022;12.148;2022-10-04T17:19:34;10.00;99.90
792;DHT22;379;49.022;12.148;2022-10-04T17:22:15;9.90;99.90
792;DHT22;379;49.022;12.148;2022-10-04T17:24:54;9.80;99.90
792;DHT22;379;49.022;12.148;2022-10-04T17:27:45;9.60;99.90
792;DHT22;379;49.022;12.148;2022-10-04T17:30:18;9.50;99.90
792;DHT22;379;49.022;12.148;2022-10-04T17:33:13;9.40;99.90
792;DHT22;379;49.022;12.148;2022-10-04T17:36:13;9.30;99.90
792;DHT22;379;49.022;12.148;2022-10-04T17:38:50;9.10;99.90
792;DHT22;379;49.022;12.148;2022-10-04T17:41:29;8.90;99.90
792;DHT22;379;49.022;12.148;2022-10-04T17:44:38;8.70;99.90
792;DHT22;379;49.022;12.148;2022-10-04T17:47:12;8.50;99.90
792;DHT22;379;49.022;12.148;2022-10-04T17:49:53;8.30;99.90
792;DHT22;379;49.022;12.148;2022-10-04T17:52:43;8.20;99.90
792;DHT22;379;49.022;12.148;2022-10-04T17:55:41;8.10;99.90
792;DHT22;379;49.022;12.148;2022-10-04T17:58:13;8.00;99.90
792;DHT22;379;49.022;12.148;2022-10-04T18:00:53;7.90;99.90
792;DHT22;379;49.022;12.148;2022-10-04T18:03:25;7.80;99.90
792;DHT22;379;49.022;12.148;2022-10-04T18:06:02;7.70;99.90
792;DHT22;379;49.022;12.148;2022-10-04T18:08:42;7.60;99.90
792;DHT22;379;49.022;12.148;2022-10-04T18:11:17;7.50;99.90
792;DHT22;379;49.022;12.148;2022-10-04T18:13:49;7.60;99.90
792;DHT22;379;49.022;12.148;2022-10-04T18:16:23;7.60;99.90
792;DHT22;379;49.022;12.148;2022-10-04T18:18:51;7.60;99.90
792;DHT22;379;49.022;12.148;2022-10-04T18:21:21;7.50;99.90
792;DHT22;379;49.022;12.148;2022-10-04T18:23:54;7.40;99.90
792;DHT22;379;49.022;12.148;2022-10-04T18:26:26;7.40;99.90
792;DHT22;379;49.022;12.148;2022-10-04T18:28:57;7.40;99.90
792;DHT22;379;49.022;12.148;2022-10-04T18:31:34;7.30;99.90
792;DHT22;379;49.022;12.148;2022-10-04T18:34:15;7.30;99.90
792;DHT22;379;49.022;12.148;2022-10-04T18:36:52;7.30;99.90
792;DHT22;379;49.022;12.148;2022-10-04T18:39:20;7.30;99.90
792;DHT22;379;49.022;12.148;2022-10-04T18:42:00;7.30;99.90
792;DHT22;379;49.022;12.148;2022-10-04T18:44:44;7.30;99.90
792;DHT22;379;49.022;12.148;2022-10-04T18:47:17;7.30;99.90
792;DHT22;379;49.022;12.148;2022-10-04T18:49:47;7.10;99.90
792;DHT22;379;49.022;12.148;2022-10-04T18:52:22;7.00;99.90
792;DHT22;379;49.022;12.148;2022-10-04T18:55:00;7.00;99.90
792;DHT22;379;49.022;12.148;2022-10-04T18:57:32;6.90;99.90
792;DHT22;379;49.022;12.148;2022-10-04T19:00:24;6.80;99.90
792;DHT22;379;49.022;12.148;2022-10-04T19:03:19;6.90;99.90
792;DHT22;379;49.022;12.148;2022-10-04T19:05:55;6.80;99.90
792;DHT22;379;49.022;12.148;2022-10-04T19:08:34;6.70;99.90
792;DHT22;379;49.022;12.148;2022-10-04T19:11:04;6.60;99.90